Terminal Aerodrome Forecast
Issued by NWS

Home | Current Version | Previous Version | Text Only | Print | Product List | Glossary On
Versions: 1 2 3 4 5 6 7 8 9 10 11 12 13 14 15 16 17 18 19 20 21 22 23
903
FTUS43 KMQT 201137 AAB
TAFCMX
TAF AMD
KCMX 201137Z 2012/2112 30003KT 3SM BR BKN200
     FM202100 00000KT 2SM BR OVC020
     FM202200 14003KT 1 1/2SM BR VCSH OVC020
     FM210000 12003KT 1SM -SHRA BR OVC015
     FM210300 11003KT 1/2SM -SHRA FG OVC008
     FM210600 12004KT 1/2SM FG OVC003=

USA.gov is the U.S. government's official web portal to all federal, state and local government web resources and services.